Airfield :
LOGIN :

Register | Disclaimer

   EN    FR    IT 

 










Legend :    VFR   Marginal VFR   IFR   Intensive IFR   Very Intensive IFR
Visi :
Ceiling :
>= 8 km
>= 3000ft
5 to 8 km
1000 to 3000 ft
1500m to 5 km
500 to 1000 ft
800 to 1500m
200 to 500 ft
< 800m
< 200 ft
Symbols :   Thunderstorms  Fog  Heavy snow  Heavy precipitations  Wind > 20 kt
SIGMETs :     Misc.  Thunderstorms  Icing  Turbulence  Mountain Waves  Volcanic Ashes







- Airport Elevation : 1455 ft


ETIH - Hohenfels Army Air Field

CURRENT METAR :
  • 252058Z AUTO 01003KT 9999 CLR 04/00 A3018 RMK AO2 SLP234 58003

EXPIRED METARs :
  • 251958Z AUTO VRB03KT 9999 CLR 05/00 A3019 RMK AO2 SLP240
  • 251858Z AUTO 00000KT 9999 CLR 07/00 A3019 RMK AO2 SLP240

TAF TAF ETIH
Valid from the 25 at 21:00 until the 27 at 03:00 UTC


252106Z 2521/2703 06009KT 9999 SKC QNH3015INS
BECMG 2601/2602 07006KT 8000 BR SCT020 QNH3016INS
BECMG 2606/2607 08009KT 9999 NSW FEW020 QNH3021INS TX13/2615Z TNM02/2605Z
No reported NOTAMs for that airfield.



MET'MAP, your aeronautical weather chart ! - Copyright ORBIFLY December 2007 - Disclaimer

ORBIFLY MET'MAP TEAM :

Programming & Development : Alexandra Zaïnal
Concept & Development : Baudouin d'Aumeries
Co-Development & Prog : Marc-Olivier Méhu
Technical & hardware support : Manuel Goepfert

Contact : metmap@orbifly.com




SOURCES & CREDITS :

   NOAA